Time;durP1;ratioP1;P1;durP2;ratioP2;P2;SDS_P1;SDS_P2;PMS_P1;PMS_P2;Temp;Humidity;BMP_temperature;BMP_pressure;BME280_temperature;BME280_humidity;BME280_pressure;Samples;Min_cycle;Max_cycle;Signal;HPM_P1;HPM_P2
2022/08/14 00:02:17;;;;;;;4.07;2.80;;;15.40;1.00;;;;;;5108274;28;20559;-92
2022/08/14 00:05:10;;;;;;;3.25;2.80;;;15.30;1.00;;;;;;5110627;27;20055;-91
2022/08/14 00:08:05;;;;;;;3.00;2.40;;;15.20;1.00;;;;;;5126665;27;20134;-91
2022/08/14 00:11:00;;;;;;;4.82;2.67;;;15.20;1.00;;;;;;5108214;28;20370;-90
2022/08/14 00:13:52;;;;;;;4.33;2.70;;;15.20;1.00;;;;;;5112536;27;20043;-90
2022/08/14 00:16:42;;;;;;;3.95;3.00;;;15.10;1.00;;;;;;5127150;27;20285;-89
2022/08/14 00:19:31;;;;;;;6.10;3.05;;;15.00;1.00;;;;;;5106526;28;20070;-90
2022/08/14 00:22:18;;;;;;;3.00;2.47;;;14.90;1.00;;;;;;5105200;28;20071;-91
2022/08/14 00:25:27;;;;;;;2.92;2.72;;;14.70;1.00;;;;;;5106351;27;20051;-90
2022/08/14 00:28:28;;;;;;;5.13;3.20;;;14.60;1.00;;;;;;5089946;28;20063;-90
2022/08/14 00:31:22;;;;;;;4.63;2.88;;;14.60;1.00;;;;;;5103214;28;20047;-91
2022/08/14 00:34:29;;;;;;;9.27;3.05;;;14.50;1.00;;;;;;5104769;27;20579;-90
2022/08/14 00:37:33;;;;;;;3.92;3.10;;;14.50;1.00;;;;;;5112915;28;20327;-92
2022/08/14 00:40:22;;;;;;;3.83;3.35;;;14.50;1.00;;;;;;5104937;28;20040;-91
2022/08/14 00:43:21;;;;;;;3.85;3.08;;;14.50;1.00;;;;;;5109112;28;20467;-90
2022/08/14 00:46:10;;;;;;;6.60;3.17;;;14.50;1.00;;;;;;5103670;27;20202;-89
2022/08/14 00:49:19;;;;;;;3.13;2.60;;;14.40;1.00;;;;;;5127352;27;20100;-91
2022/08/14 00:52:10;;;;;;;3.85;3.00;;;14.30;1.00;;;;;;5113580;28;20082;-90
2022/08/14 00:55:01;;;;;;;;;;;14.20;1.00;;;;;;5115781;27;20044;-90
2022/08/14 01:01:08;;;;;;;3.17;2.83;;;14.00;1.00;;;;;;5117314;27;20312;-90
2022/08/14 01:04:00;;;;;;;2.95;2.53;;;13.90;1.00;;;;;;5099900;28;20128;-90
2022/08/14 01:06:52;;;;;;;3.67;2.95;;;13.80;1.00;;;;;;5119818;27;20047;-89
2022/08/14 01:09:41;;;;;;;2.70;2.50;;;13.80;1.00;;;;;;5117917;27;20044;-91
2022/08/14 01:12:29;;;;;;;2.90;2.58;;;13.80;1.00;;;;;;5115211;28;20040;-87
2022/08/14 01:15:20;;;;;;;3.45;3.05;;;13.90;1.00;;;;;;5119696;27;20035;-90
2022/08/14 01:21:48;;;;;;;4.05;3.15;;;14.30;1.00;;;;;;5100864;28;20056;-90
2022/08/14 01:24:40;;;;;;;7.97;3.38;;;14.40;1.00;;;;;;5101522;27;20164;-91
2022/08/14 01:27:29;;;;;;;3.70;3.05;;;14.30;1.00;;;;;;5104084;28;20040;-91
2022/08/14 01:30:37;;;;;;;4.20;3.28;;;14.30;1.00;;;;;;5104115;28;20090;-89
2022/08/14 01:33:33;;;;;;;3.72;3.03;;;14.30;1.00;;;;;;5104397;28;20043;-89
2022/08/14 01:36:40;;;;;;;4.40;3.20;;;14.10;1.00;;;;;;5103179;28;20050;-88
2022/08/14 01:39:29;;;;;;;4.35;2.75;;;14.00;1.00;;;;;;5115294;28;20039;-89
2022/08/14 01:42:18;;;;;;;4.22;2.88;;;14.00;1.00;;;;;;5114189;28;20086;-90
2022/08/14 01:45:18;;;;;;;5.70;2.85;;;14.10;1.00;;;;;;5107730;27;20383;-90
2022/08/14 01:48:14;;;;;;;4.03;2.97;;;14.20;1.00;;;;;;5113438;28;20039;-91
2022/08/14 01:51:07;;;;;;;5.00;3.22;;;14.10;1.00;;;;;;5115284;27;21321;-90
2022/08/14 01:54:14;;;;;;;4.53;2.80;;;14.00;1.00;;;;;;5112387;28;20123;-89
2022/08/14 01:57:09;;;;;;;4.20;3.33;;;14.00;1.00;;;;;;5082803;28;20052;-90
2022/08/14 02:00:02;;;;;;;3.33;3.03;;;13.90;1.00;;;;;;5106415;27;20043;-91
2022/08/14 02:02:49;;;;;;;3.92;2.90;;;13.90;1.00;;;;;;5109529;28;20466;-90
2022/08/14 02:05:38;;;;;;;3.33;2.83;;;13.90;1.00;;;;;;5098128;28;20039;-90
2022/08/14 02:08:28;;;;;;;3.90;3.28;;;13.90;1.00;;;;;;5100830;28;20047;-90
2022/08/14 02:11:23;;;;;;;5.80;3.53;;;13.90;1.00;;;;;;5106172;28;20101;-91
2022/08/14 02:14:12;;;;;;;3.45;2.78;;;13.70;1.00;;;;;;5113055;28;20113;-91
2022/08/14 02:17:05;;;;;;;4.10;3.63;;;13.60;1.00;;;;;;5102954;28;20059;-91
2022/08/14 02:19:53;;;;;;;;;;;13.70;1.00;;;;;;5111112;27;20043;-89
2022/08/14 02:22:40;;;;;;;3.15;2.85;;;13.60;1.00;;;;;;5107245;28;20223;-91
2022/08/14 02:25:37;;;;;;;6.55;3.03;;;13.50;1.00;;;;;;5110247;27;20058;-90
2022/08/14 02:28:26;;;;;;;3.28;2.92;;;13.50;1.00;;;;;;5106656;28;20044;-90
2022/08/14 02:31:36;;;;;;;4.32;3.20;;;13.50;1.00;;;;;;5130436;27;20192;-89
2022/08/14 02:34:32;;;;;;;3.67;3.03;;;13.50;1.00;;;;;;5113511;27;20135;-88
2022/08/14 02:37:22;;;;;;;4.97;3.45;;;13.50;1.00;;;;;;5125152;27;20047;-90
2022/08/14 02:40:31;;;;;;;4.75;3.17;;;13.50;1.00;;;;;;5118595;27;20178;-86
2022/08/14 02:43:20;;;;;;;3.58;3.17;;;13.50;1.00;;;;;;5104667;28;20047;-90
2022/08/14 02:46:10;;;;;;;8.15;3.60;;;13.60;1.00;;;;;;5118242;28;20035;-91
2022/08/14 02:49:00;;;;;;;3.92;3.10;;;13.60;1.00;;;;;;5121466;28;20040;-86
2022/08/14 02:51:54;;;;;;;4.20;3.50;;;13.50;1.00;;;;;;5133998;28;20036;-89
2022/08/14 02:54:43;;;;;;;7.50;3.50;;;13.40;1.00;;;;;;5126462;28;20040;-90
2022/08/14 02:57:33;;;;;;;4.60;3.47;;;13.30;1.00;;;;;;5109316;28;20043;-90
2022/08/14 03:00:27;;;;;;;3.38;3.08;;;13.20;1.00;;;;;;5108412;28;20036;-89
2022/08/14 03:03:16;;;;;;;4.63;3.45;;;13.50;1.00;;;;;;5092659;28;20371;-91
2022/08/14 03:06:04;;;;;;;3.78;3.33;;;13.50;1.00;;;;;;5115589;27;20051;-91
2022/08/14 03:08:55;;;;;;;4.63;3.30;;;13.50;1.00;;;;;;5111847;27;20139;-91
2022/08/14 03:11:44;;;;;;;4.38;3.80;;;13.40;1.00;;;;;;5092084;28;20184;-91
2022/08/14 03:14:38;;;;;;;6.53;3.63;;;13.30;1.00;;;;;;5115546;28;20117;-88
2022/08/14 03:17:27;;;;;;;3.60;3.30;;;13.30;1.00;;;;;;5105068;27;20040;-92
2022/08/14 03:20:29;;;;;;;4.10;3.70;;;13.20;1.00;;;;;;5115772;28;20051;-89
2022/08/14 03:23:18;;;;;;;4.25;3.80;;;13.00;1.00;;;;;;5101957;28;20054;-90
2022/08/14 03:26:10;;;;;;;6.53;3.65;;;12.80;1.00;;;;;;5102502;28;20052;-91
2022/08/14 03:29:05;;;;;;;4.35;3.80;;;12.80;1.00;;;;;;5111639;28;20089;-91
2022/08/14 03:32:00;;;;;;;5.32;3.60;;;12.60;8.10;;;;;;5116311;28;20040;-88
2022/08/14 03:34:52;;;;;;;10.65;4.13;;;12.60;19.40;;;;;;5121135;27;20036;-90
2022/08/14 03:37:44;;;;;;;4.10;3.63;;;12.60;22.80;;;;;;5121580;27;20032;-90
2022/08/14 03:40:51;;;;;;;11.85;4.05;;;12.60;24.90;;;;;;5131550;27;20039;-92
2022/08/14 03:43:43;;;;;;;10.05;3.90;;;12.50;25.70;;;;;;5132722;28;20327;-89
2022/08/14 03:46:37;;;;;;;4.10;3.60;;;12.60;34.90;;;;;;5114113;28;20048;-89
2022/08/14 03:49:46;;;;;;;5.05;3.50;;;12.70;21.40;;;;;;5129706;27;20043;-87
2022/08/14 03:52:42;;;;;;;6.35;3.60;;;12.80;16.00;;;;;;5124875;28;20070;-88
2022/08/14 03:55:41;;;;;;;3.90;3.50;;;12.60;25.40;;;;;;5135823;28;20048;-80
2022/08/14 03:58:31;;;;;;;4.97;4.13;;;12.60;34.90;;;;;;5133063;27;20091;-81
2022/08/14 04:01:24;;;;;;;6.78;3.78;;;12.70;35.70;;;;;;5126258;27;20023;-82
2022/08/14 04:04:15;;;;;;;5.25;3.75;;;12.70;23.40;;;;;;5133919;28;20044;-90
2022/08/14 04:07:03;;;;;;;5.22;4.20;;;12.70;19.00;;;;;;5127722;28;20048;-88
2022/08/14 04:09:51;;;;;;;4.15;3.50;;;12.60;16.30;;;;;;5116306;28;20370;-92
2022/08/14 04:12:38;;;;;;;5.35;3.88;;;12.60;16.20;;;;;;5112489;28;20051;-90
2022/08/14 04:15:26;;;;;;;4.32;3.90;;;12.60;17.70;;;;;;5111540;28;20101;-91
2022/08/14 04:18:13;;;;;;;6.53;3.70;;;12.60;20.60;;;;;;5114961;27;20051;-89
2022/08/14 04:21:05;;;;;;;9.68;3.83;;;12.50;29.70;;;;;;5101372;28;20043;-89
2022/08/14 04:23:56;;;;;;;4.28;3.88;;;12.40;40.20;;;;;;5117518;28;20035;-89
2022/08/14 04:26:44;;;;;;;5.68;4.28;;;12.40;48.00;;;;;;5133612;28;20523;-90
2022/08/14 04:29:37;;;;;;;4.85;3.53;;;12.50;39.30;;;;;;5115197;28;20040;-90
2022/08/14 04:32:27;;;;;;;5.82;3.83;;;12.50;38.80;;;;;;5115433;28;20052;-90
2022/08/14 04:35:35;;;;;;;5.57;4.60;;;12.50;40.10;;;;;;5115176;28;20118;-88
2022/08/14 04:45:00;;;;;;;4.22;3.85;;;12.90;36.20;;;;;;5097748;28;20132;-88
2022/08/14 04:50:56;;;;;;;4.13;3.25;;;12.90;45.80;;;;;;5120679;27;20081;-87
2022/08/14 04:53:46;;;;;;;3.97;3.28;;;13.10;43.70;;;;;;5094823;28;20078;-88
2022/08/14 04:56:34;;;;;;;4.95;4.20;;;13.20;35.90;;;;;;5110822;27;20063;-88
2022/08/14 04:59:24;;;;;;;5.32;3.97;;;13.40;20.90;;;;;;5109400;27;20042;-88
2022/08/14 05:02:16;;;;;;;7.25;4.13;;;13.60;5.50;;;;;;5116417;27;20043;-87
2022/08/14 05:05:15;;;;;;;4.10;3.30;;;13.80;1.00;;;;;;5102505;28;20104;-88
2022/08/14 05:08:15;;;;;;;5.25;3.47;;;14.00;1.00;;;;;;5095560;28;20040;-85
2022/08/14 05:11:22;;;;;;;4.10;3.70;;;14.20;1.00;;;;;;5099015;28;20131;-87
2022/08/14 05:14:11;;;;;;;6.55;3.58;;;14.30;1.00;;;;;;5093555;28;20043;-86
2022/08/14 05:17:20;;;;;;;5.88;4.07;;;14.50;1.00;;;;;;5111942;28;20032;-86
2022/08/14 05:20:08;;;;;;;5.75;3.80;;;14.60;1.00;;;;;;5087135;28;20071;-87
2022/08/14 05:23:22;;;;;;;9.02;3.50;;;14.90;1.00;;;;;;5112238;27;20044;-87
2022/08/14 05:26:12;;;;;;;4.18;3.25;;;15.00;1.00;;;;;;5099911;28;20055;-86
2022/08/14 05:28:59;;;;;;;6.05;3.15;;;15.00;1.00;;;;;;5104013;28;20055;-87
2022/08/14 05:31:48;;;;;;;5.80;3.03;;;15.00;1.00;;;;;;5096446;28;20067;-88
2022/08/14 05:34:42;;;;;;;8.38;3.50;;;15.10;1.00;;;;;;5112128;27;20465;-87
2022/08/14 05:37:32;;;;;;;3.88;2.80;;;15.10;1.00;;;;;;5113808;28;20496;-88
2022/08/14 05:40:21;;;;;;;6.90;2.92;;;15.10;1.00;;;;;;5105373;28;20140;-88
2022/08/14 05:43:10;;;;;;;4.90;3.20;;;15.20;1.00;;;;;;5101157;28;20047;-87
2022/08/14 05:46:00;;;;;;;5.35;3.08;;;15.30;1.00;;;;;;5112452;28;20051;-87
2022/08/14 05:48:55;;;;;;;3.53;3.20;;;15.50;1.00;;;;;;5111799;27;20050;-87
2022/08/14 05:51:45;;;;;;;8.20;3.20;;;15.60;1.00;;;;;;5089270;28;20058;-87
2022/08/14 05:54:32;;;;;;;3.17;2.92;;;15.70;1.00;;;;;;5111117;28;20040;-87
2022/08/14 05:57:23;;;;;;;4.82;2.72;;;15.70;1.00;;;;;;5105747;28;20039;-88
2022/08/14 06:00:11;;;;;;;5.50;3.17;;;15.70;1.00;;;;;;5115890;27;20127;-89
2022/08/14 06:03:15;;;;;;;3.28;2.80;;;15.70;1.00;;;;;;5098840;28;20126;-89
2022/08/14 06:06:05;;;;;;;4.80;3.28;;;15.90;1.00;;;;;;5116413;28;20407;-88
2022/08/14 06:08:53;;;;;;;5.05;2.90;;;16.10;1.00;;;;;;5109506;27;20054;-88
2022/08/14 06:11:40;;;;;;;3.90;2.95;;;16.40;1.00;;;;;;5111306;28;20032;-86
2022/08/14 06:14:30;;;;;;;6.85;3.17;;;16.60;1.00;;;;;;5107884;28;20045;-90
2022/08/14 06:17:17;;;;;;;6.05;3.05;;;16.80;1.00;;;;;;5110019;27;20043;-89
2022/08/14 06:20:15;;;;;;;3.22;2.90;;;17.00;1.00;;;;;;5118076;27;20039;-90
2022/08/14 06:23:08;;;;;;;2.90;2.60;;;17.20;1.00;;;;;;5121852;27;20051;-90
2022/08/14 06:25:55;;;;;;;4.65;2.80;;;17.40;1.00;;;;;;5122611;27;20047;-90
2022/08/14 06:28:43;;;;;;;4.88;3.10;;;17.60;1.00;;;;;;5108086;28;20048;-90
2022/08/14 06:31:33;;;;;;;4.78;3.30;;;17.80;1.00;;;;;;5105078;28;20047;-90
2022/08/14 06:34:21;;;;;;;9.55;3.38;;;17.80;1.00;;;;;;5128894;28;20032;-88
2022/08/14 06:37:50;;;;;;;4.35;3.10;;;17.90;1.00;;;;;;5131570;27;20070;-86
2022/08/14 06:40:37;;;;;;;4.35;2.70;;;18.10;1.00;;;;;;5129335;28;20057;-87
2022/08/14 06:43:42;;;;;;;3.20;2.50;;;18.30;1.00;;;;;;5128286;28;20103;-91
2022/08/14 06:46:35;;;;;;;4.68;2.60;;;18.50;1.00;;;;;;5115251;28;20044;-89
2022/08/14 06:49:26;;;;;;;6.38;2.50;;;18.80;1.00;;;;;;5118601;28;20047;-91
2022/08/14 06:52:13;;;;;;;5.13;2.90;;;19.10;1.00;;;;;;5114423;28;20058;-91
2022/08/14 06:55:04;;;;;;;5.97;2.80;;;19.30;1.00;;;;;;5100082;28;20106;-91
2022/08/14 06:57:54;;;;;;;3.13;2.42;;;19.60;1.00;;;;;;5118497;28;20035;-89
2022/08/14 07:07:09;;;;;;;2.63;2.15;;;20.50;1.00;;;;;;5108815;28;20101;-91
2022/08/14 07:09:56;;;;;;;4.72;2.55;;;20.80;1.00;;;;;;5103806;28;20044;-91
2022/08/14 07:12:47;;;;;;;4.07;2.22;;;21.20;1.00;;;;;;5110198;28;20051;-91
2022/08/14 07:15:52;;;;;;;3.25;1.90;;;21.50;1.00;;;;;;5120635;28;20165;-90
2022/08/14 07:18:41;;;;;;;3.13;2.17;;;22.00;1.00;;;;;;5113554;28;20105;-88
2022/08/14 07:21:28;;;;;;;2.70;2.00;;;22.50;1.00;;;;;;5110753;28;20046;-91
2022/08/14 07:24:17;;;;;;;4.38;1.98;;;23.10;1.00;;;;;;5112446;28;20062;-91
2022/08/14 07:27:14;;;;;;;4.93;2.10;;;23.60;99.90;;;;;;5091375;28;20048;-92
2022/08/14 07:30:03;;;;;;;2.10;1.90;;;24.30;99.90;;;;;;5112626;28;20264;-92
2022/08/14 07:32:57;;;;;;;3.75;1.55;;;24.80;99.90;;;;;;5113969;28;20139;-91
2022/08/14 07:35:46;;;;;;;1.90;1.70;;;25.00;99.90;;;;;;5121043;28;20130;-92
2022/08/14 07:38:45;;;;;;;1.92;1.73;;;25.20;99.90;;;;;;5100802;28;20043;-91
2022/08/14 07:41:38;;;;;;;3.13;1.70;;;25.50;99.90;;;;;;5103181;28;20051;-90
2022/08/14 07:44:28;;;;;;;3.75;1.90;;;25.60;99.90;;;;;;5122265;28;20361;-90
2022/08/14 07:47:22;;;;;;;1.88;1.77;;;25.90;99.90;;;;;;5112269;28;20450;-91
2022/08/14 07:50:15;;;;;;;5.10;2.50;;;26.10;99.90;;;;;;5118019;28;20047;-90
2022/08/14 07:53:06;;;;;;;3.78;1.85;;;26.50;99.90;;;;;;5142887;27;20066;-91
2022/08/14 07:55:54;;;;;;;2.53;1.50;;;26.80;99.90;;;;;;5133840;28;20052;-89
2022/08/14 07:58:55;;;;;;;2.30;1.73;;;27.30;99.90;;;;;;5117826;28;20079;-89
2022/08/14 08:01:47;;;;;;;1.92;1.50;;;27.60;99.90;;;;;;5136670;27;20054;-88
2022/08/14 08:04:41;;;;;;;2.92;1.58;;;28.30;99.90;;;;;;5127273;27;20044;-88
2022/08/14 08:07:30;;;;;;;2.28;1.83;;;28.60;99.90;;;;;;5109400;28;20431;-88
2022/08/14 08:10:33;;;;;;;3.40;1.60;;;29.10;99.90;;;;;;5115555;27;20105;-89
2022/08/14 08:13:55;;;;;;;1.98;1.73;;;29.30;99.90;;;;;;5112821;28;20085;-88
2022/08/14 08:16:46;;;;;;;4.43;1.45;;;29.20;99.90;;;;;;5104257;28;20105;-88
2022/08/14 08:19:37;;;;;;;2.72;1.40;;;29.40;99.90;;;;;;5099862;27;20039;-88
2022/08/14 08:22:29;;;;;;;1.95;1.58;;;29.50;99.90;;;;;;5102353;28;20054;-88
2022/08/14 08:25:33;;;;;;;1.42;1.33;;;30.20;99.90;;;;;;5118578;27;20488;-88
2022/08/14 08:28:31;;;;;;;2.85;1.33;;;30.00;99.90;;;;;;5117295;27;20071;-88
2022/08/14 08:31:20;;;;;;;3.35;1.65;;;30.70;99.90;;;;;;5109743;28;20055;-84
2022/08/14 08:34:07;;;;;;;1.80;1.40;;;30.50;99.90;;;;;;5117141;28;20327;-85
2022/08/14 08:37:06;;;;;;;3.67;1.55;;;30.80;99.90;;;;;;5125825;28;20062;-87
2022/08/14 08:39:55;;;;;;;2.25;1.33;;;30.20;99.90;;;;;;5127863;27;20386;-87
2022/08/14 08:42:49;;;;;;;3.63;1.30;;;30.60;99.90;;;;;;5134652;27;20047;-88
2022/08/14 08:45:40;;;;;;;2.63;1.42;;;30.80;99.90;;;;;;5132792;27;20043;-82
2022/08/14 08:48:47;;;;;;;2.53;1.60;;;31.20;99.90;;;;;;5131529;28;20039;-86
2022/08/14 08:51:44;;;;;;;1.40;1.23;;;31.10;99.90;;;;;;5116074;28;20036;-86
2022/08/14 08:54:33;;;;;;;1.85;1.42;;;31.20;99.90;;;;;;5115211;28;20304;-88
2022/08/14 08:57:22;;;;;;;4.55;1.58;;;31.50;99.90;;;;;;5114845;28;20043;-89
2022/08/14 09:00:16;;;;;;;2.28;1.38;;;31.70;99.90;;;;;;5109727;28;20043;-87
2022/08/14 09:03:18;;;;;;;2.05;1.40;;;31.30;99.90;;;;;;5110767;27;20172;-91
2022/08/14 09:06:06;;;;;;;3.72;1.67;;;31.40;99.90;;;;;;5099156;28;20035;-86
2022/08/14 09:09:27;;;;;;;2.13;1.23;;;31.70;99.90;;;;;;5107165;27;20345;-85
2022/08/14 09:12:22;;;;;;;2.88;1.13;;;32.10;99.90;;;;;;5099834;28;20043;-87
2022/08/14 09:15:10;;;;;;;1.65;1.10;;;32.20;99.90;;;;;;5099329;28;20469;-88
2022/08/14 09:17:59;;;;;;;1.88;1.30;;;31.80;99.90;;;;;;5107153;28;20039;-87
2022/08/14 09:20:49;;;;;;;1.63;1.25;;;32.10;99.90;;;;;;5115788;28;20039;-86
2022/08/14 09:23:40;;;;;;;2.85;1.50;;;32.50;99.90;;;;;;5099014;28;20127;-86
2022/08/14 09:26:48;;;;;;;2.55;1.40;;;32.90;99.90;;;;;;5106202;28;20050;-89
2022/08/14 09:29:38;;;;;;;1.80;1.50;;;33.30;99.90;;;;;;5106963;27;20479;-88
2022/08/14 09:32:38;;;;;;;2.72;1.40;;;33.30;99.90;;;;;;5093655;28;20047;-87
2022/08/14 09:36:00;;;;;;;4.40;1.48;;;32.60;99.90;;;;;;5089645;28;20130;-89
2022/08/14 09:39:18;;;;;;;2.33;1.50;;;32.20;99.90;;;;;;5121450;27;20074;-87
2022/08/14 09:42:21;;;;;;;3.03;1.50;;;32.90;99.90;;;;;;5091250;28;20040;-85
2022/08/14 09:45:29;;;;;;;2.75;1.42;;;33.20;99.90;;;;;;5105069;27;20037;-89
2022/08/14 09:48:27;;;;;;;2.33;1.10;;;34.00;99.90;;;;;;5103900;28;20040;-87
2022/08/14 09:51:24;;;;;;;4.53;1.63;;;34.60;99.90;;;;;;5112266;28;20438;-90
2022/08/14 09:54:18;;;;;;;1.55;1.45;;;34.30;99.90;;;;;;5109439;28;20040;-88
2022/08/14 09:57:25;;;;;;;1.48;1.38;;;34.40;99.90;;;;;;5109559;28;20048;-90
2022/08/14 10:00:18;;;;;;;4.70;1.23;;;33.90;99.90;;;;;;5116749;27;20039;-85
2022/08/14 10:03:32;;;;;;;3.00;1.40;;;33.90;99.90;;;;;;5112901;28;20043;-90
2022/08/14 10:06:26;;;;;;;3.10;1.48;;;34.40;99.90;;;;;;5101123;28;20382;-91
2022/08/14 10:09:15;;;;;;;2.83;1.40;;;35.50;99.90;;;;;;5113253;28;20059;-85
2022/08/14 10:12:06;;;;;;;4.30;1.52;;;36.20;99.90;;;;;;5112307;27;20048;-88
2022/08/14 10:15:25;;;;;;;1.20;1.10;;;36.00;99.90;;;;;;5111602;28;20043;-89
2022/08/14 10:18:21;;;;;;;2.20;1.40;;;35.20;99.90;;;;;;5099947;27;20055;-91
2022/08/14 10:21:15;;;;;;;2.85;1.65;;;35.20;99.90;;;;;;5112622;27;20039;-87
2022/08/14 10:24:07;;;;;;;1.48;1.38;;;34.70;99.90;;;;;;5104247;28;21165;-89
2022/08/14 10:26:57;;;;;;;2.58;1.42;;;34.20;99.90;;;;;;5097042;28;20047;-86
2022/08/14 10:29:53;;;;;;;3.90;1.35;;;34.70;99.90;;;;;;5118153;27;20048;-90
2022/08/14 10:32:45;;;;;;;5.63;1.77;;;34.80;99.90;;;;;;5114868;28;20050;-87
2022/08/14 10:35:44;;;;;;;2.88;1.70;;;35.20;99.90;;;;;;5118278;28;20038;-85
2022/08/14 10:38:35;;;;;;;3.33;1.60;;;35.10;99.90;;;;;;5136298;27;20040;-90
2022/08/14 10:41:35;;;;;;;3.70;1.42;;;34.40;99.90;;;;;;5151754;27;20049;-90
2022/08/14 10:44:38;;;;;;;1.42;1.33;;;35.60;99.90;;;;;;5145122;27;20039;-89
2022/08/14 10:47:38;;;;;;;2.63;1.55;;;36.00;99.90;;;;;;5121363;28;20051;-86
2022/08/14 10:50:50;;;;;;;1.20;1.10;;;36.60;99.90;;;;;;5104685;28;20059;-88
2022/08/14 10:53:39;;;;;;;1.30;1.20;;;37.40;99.90;;;;;;5108835;28;20039;-90
2022/08/14 10:56:32;;;;;;;2.45;1.10;;;37.20;99.90;;;;;;5102760;28;20064;-90
2022/08/14 10:59:22;;;;;;;1.83;1.50;;;37.30;99.90;;;;;;5084039;28;20040;-87
2022/08/14 11:02:30;;;;;;;2.13;1.40;;;36.60;99.90;;;;;;5095554;28;20051;-88
2022/08/14 11:05:43;;;;;;;1.23;1.13;;;36.80;99.90;;;;;;5088436;28;20125;-88
2022/08/14 11:08:32;;;;;;;1.65;1.20;;;37.30;99.90;;;;;;5113768;28;20388;-87
2022/08/14 11:11:25;;;;;;;2.85;1.27;;;37.30;99.90;;;;;;5111453;28;20087;-87
2022/08/14 11:14:22;;;;;;;1.35;1.25;;;36.90;99.90;;;;;;5110938;28;20047;-88
2022/08/14 11:17:12;;;;;;;1.45;1.25;;;36.90;99.90;;;;;;5105575;28;20055;-87
2022/08/14 11:20:09;;;;;;;2.72;1.40;;;35.60;99.90;;;;;;5108066;28;20474;-89
2022/08/14 11:23:06;;;;;;;1.45;1.10;;;36.20;99.90;;;;;;5110440;28;20059;-85
2022/08/14 11:25:57;;;;;;;4.80;1.10;;;35.80;99.90;;;;;;5113153;28;20458;-90
2022/08/14 11:28:48;;;;;;;1.23;1.15;;;35.90;99.90;;;;;;5108163;27;20060;-88
2022/08/14 11:31:36;;;;;;;1.58;1.30;;;36.50;99.90;;;;;;5106034;28;20134;-90
2022/08/14 11:34:25;;;;;;;4.43;1.50;;;36.70;99.90;;;;;;5110971;27;20123;-90
2022/08/14 11:37:21;;;;;;;1.42;1.33;;;35.90;99.90;;;;;;5105883;27;20036;-88
2022/08/14 11:40:28;;;;;;;1.75;1.20;;;36.50;99.90;;;;;;5104669;28;20040;-88
2022/08/14 11:43:16;;;;;;;1.52;1.42;;;37.40;99.90;;;;;;5101593;28;20103;-88
2022/08/14 11:46:05;;;;;;;2.47;1.48;;;36.60;99.90;;;;;;5105128;28;20048;-90
2022/08/14 11:49:04;;;;;;;2.65;1.25;;;36.60;99.90;;;;;;5120386;27;20630;-90
2022/08/14 11:51:55;;;;;;;2.03;1.30;;;36.30;99.90;;;;;;5111118;27;20434;-89
2022/08/14 11:54:56;;;;;;;1.50;1.20;;;36.20;99.90;;;;;;5107614;28;20051;-87
2022/08/14 11:57:46;;;;;;;0.95;0.95;;;36.70;99.90;;;;;;5115979;27;20406;-89
2022/08/14 12:00:52;;;;;;;0.90;0.90;;;38.30;99.90;;;;;;5115531;27;20039;-85
2022/08/14 12:03:40;;;;;;;1.15;0.80;;;39.10;99.90;;;;;;5119887;28;20044;-89
2022/08/14 12:06:51;;;;;;;5.32;0.90;;;39.00;99.90;;;;;;5121086;28;20051;-87
2022/08/14 12:09:39;;;;;;;0.80;0.80;;;39.00;99.90;;;;;;5107844;28;20154;-85
2022/08/14 12:12:31;;;;;;;0.88;0.82;;;38.50;99.90;;;;;;5118419;27;20039;-87
2022/08/14 12:15:34;;;;;;;1.25;0.60;;;38.40;99.90;;;;;;5104591;28;20096;-89
2022/08/14 12:18:31;;;;;;;3.10;1.08;;;38.90;99.90;;;;;;5116086;27;20122;-88
2022/08/14 12:21:22;;;;;;;0.85;0.52;;;39.60;99.90;;;;;;5112051;28;20066;-87
2022/08/14 12:24:11;;;;;;;0.70;0.70;;;40.50;99.90;;;;;;5115665;27;20053;-89
2022/08/14 12:27:18;;;;;;;1.40;0.88;;;41.30;99.90;;;;;;5115541;27;20127;-88
2022/08/14 12:30:32;;;;;;;2.88;0.95;;;39.70;99.90;;;;;;5093704;28;20047;-88
2022/08/14 12:33:29;;;;;;;1.45;0.82;;;39.70;99.90;;;;;;5106640;27;20044;-86
2022/08/14 12:36:20;;;;;;;1.10;1.00;;;40.40;99.90;;;;;;5128578;27;20370;-88
2022/08/14 12:39:24;;;;;;;1.27;0.75;;;40.70;99.90;;;;;;5125147;27;20055;-87
2022/08/14 12:42:14;;;;;;;0.77;0.65;;;41.70;99.90;;;;;;5109735;27;20504;-90
2022/08/14 12:45:35;;;;;;;4.50;0.80;;;41.90;99.90;;;;;;5109779;27;20450;-88
2022/08/14 12:48:25;;;;;;;1.45;0.90;;;41.40;99.90;;;;;;5115638;27;20482;-89
2022/08/14 12:51:21;;;;;;;2.97;0.70;;;41.20;99.90;;;;;;5118125;27;20054;-87
2022/08/14 12:54:19;;;;;;;2.72;0.70;;;41.30;99.90;;;;;;5098850;27;20043;-88
2022/08/14 12:57:15;;;;;;;0.60;0.60;;;41.50;99.90;;;;;;5092712;28;20048;-86
2022/08/14 13:00:17;;;;;;;1.00;0.90;;;41.40;99.90;;;;;;5109074;28;20047;-90
2022/08/14 13:03:24;;;;;;;2.55;0.60;;;41.80;99.90;;;;;;5112997;27;20126;-87
2022/08/14 13:06:13;;;;;;;3.30;0.80;;;42.10;99.90;;;;;;5118606;27;20073;-89
2022/08/14 13:09:07;;;;;;;1.20;0.90;;;42.60;99.90;;;;;;5114684;28;20032;-88
2022/08/14 13:12:01;;;;;;;1.15;0.60;;;41.60;99.90;;;;;;5101544;28;20399;-86
2022/08/14 13:15:13;;;;;;;1.23;1.03;;;41.00;99.90;;;;;;5090362;28;20136;-90
2022/08/14 13:18:07;;;;;;;1.35;0.73;;;40.70;99.90;;;;;;5109534;28;20743;-91
2022/08/14 13:21:00;;;;;;;6.75;1.17;;;41.10;99.90;;;;;;5101233;27;20508;-89
2022/08/14 13:23:48;;;;;;;0.95;0.70;;;39.70;99.90;;;;;;5108534;27;20039;-87
2022/08/14 13:26:38;;;;;;;1.75;0.90;;;39.40;99.90;;;;;;5110320;28;20055;-88
2022/08/14 13:29:41;;;;;;;1.13;0.90;;;40.20;99.90;;;;;;5117758;28;20054;-89
2022/08/14 13:32:39;;;;;;;1.73;1.10;;;40.70;99.90;;;;;;5107589;28;20123;-90
2022/08/14 13:35:26;;;;;;;2.60;0.70;;;41.40;99.90;;;;;;5100610;28;20059;-91
2022/08/14 13:38:20;;;;;;;4.82;0.70;;;42.50;99.90;;;;;;5103144;28;20048;-91
2022/08/14 13:41:09;;;;;;;2.17;1.00;;;43.50;99.90;;;;;;5104726;27;20122;-88
2022/08/14 13:43:58;;;;;;;0.50;0.50;;;42.40;99.90;;;;;;5114458;27;20040;-87
2022/08/14 13:46:47;;;;;;;1.73;0.95;;;42.70;99.90;;;;;;5121488;27;20039;-90
2022/08/14 13:49:37;;;;;;;3.38;1.13;;;42.90;99.90;;;;;;5109208;28;20044;-90
2022/08/14 13:52:52;;;;;;;1.00;0.90;;;43.80;99.90;;;;;;5114319;27;20097;-89
2022/08/14 13:55:43;;;;;;;1.40;0.65;;;43.50;99.90;;;;;;5117903;27;20130;-90
2022/08/14 13:58:38;;;;;;;0.63;0.63;;;42.10;99.90;;;;;;5108682;28;20085;-91
2022/08/14 14:01:35;;;;;;;1.00;0.93;;;42.70;99.90;;;;;;5105856;28;20544;-89
2022/08/14 14:04:31;;;;;;;1.85;0.70;;;42.10;99.90;;;;;;5109295;27;20052;-87
2022/08/14 14:07:22;;;;;;;1.95;1.00;;;41.40;99.90;;;;;;5102527;27;20346;-88
2022/08/14 14:10:20;;;;;;;2.20;1.10;;;41.30;99.90;;;;;;5115446;27;20499;-88
2022/08/14 14:13:17;;;;;;;3.20;1.00;;;41.20;99.90;;;;;;5096670;28;20039;-87
2022/08/14 14:16:08;;;;;;;2.63;0.90;;;41.20;99.90;;;;;;5107015;27;20420;-88
2022/08/14 14:18:59;;;;;;;1.20;1.10;;;41.60;99.90;;;;;;5107051;28;20051;-87
2022/08/14 14:21:55;;;;;;;0.95;0.90;;;41.70;99.90;;;;;;5098467;28;20435;-88
2022/08/14 14:24:45;;;;;;;0.93;0.90;;;42.00;99.90;;;;;;5112847;27;20040;-87
2022/08/14 14:27:35;;;;;;;0.95;0.95;;;40.70;99.90;;;;;;5112200;28;20039;-86
2022/08/14 14:30:29;;;;;;;1.08;0.95;;;39.70;99.90;;;;;;5098655;28;20032;-87
2022/08/14 14:33:47;;;;;;;3.67;1.50;;;38.80;99.90;;;;;;5122722;27;20054;-88
2022/08/14 14:36:35;;;;;;;1.23;1.15;;;38.30;99.90;;;;;;5111143;27;20479;-87
2022/08/14 14:39:31;;;;;;;1.40;1.30;;;37.80;99.90;;;;;;5127745;27;20066;-90
2022/08/14 14:42:48;;;;;;;1.90;1.38;;;37.10;99.90;;;;;;5100184;28;20430;-87
2022/08/14 14:45:42;;;;;;;2.97;2.17;;;36.50;99.90;;;;;;5079171;28;20053;-87
2022/08/14 14:48:32;;;;;;;1.25;1.15;;;36.80;99.90;;;;;;5093897;28;20036;-88
2022/08/14 14:51:20;;;;;;;4.75;2.00;;;36.60;99.90;;;;;;5113594;28;20036;-87
2022/08/14 14:54:12;;;;;;;1.60;1.50;;;36.00;99.90;;;;;;5112981;28;20048;-89
2022/08/14 14:57:03;;;;;;;2.22;1.45;;;36.00;99.90;;;;;;5087206;28;20044;-90
2022/08/14 14:59:56;;;;;;;2.38;1.40;;;34.70;99.90;;;;;;5105864;28;20048;-89
2022/08/14 15:02:55;;;;;;;1.73;1.52;;;33.70;99.90;;;;;;5100659;28;20100;-89
2022/08/14 15:05:46;;;;;;;2.05;1.63;;;33.50;99.90;;;;;;5118031;28;20040;-88
2022/08/14 15:08:35;;;;;;;2.08;1.70;;;33.40;99.90;;;;;;5103302;28;20478;-89
2022/08/14 15:11:43;;;;;;;2.55;1.63;;;33.70;99.90;;;;;;5107984;28;20092;-90
2022/08/14 15:14:31;;;;;;;2.08;1.88;;;33.70;99.90;;;;;;5094499;28;20054;-85
2022/08/14 15:17:40;;;;;;;3.60;1.80;;;34.20;99.90;;;;;;5107858;28;20058;-87
2022/08/14 15:20:29;;;;;;;1.60;1.50;;;34.90;99.90;;;;;;5103786;28;20062;-86
2022/08/14 15:23:17;;;;;;;1.92;1.63;;;35.60;99.90;;;;;;5112280;27;20097;-82
2022/08/14 15:26:14;;;;;;;2.05;1.50;;;35.90;99.90;;;;;;5116065;28;20059;-84
2022/08/14 15:29:17;;;;;;;4.82;1.60;;;36.20;99.90;;;;;;5116188;28;20040;-84
2022/08/14 15:32:08;;;;;;;2.78;1.50;;;36.70;99.90;;;;;;5118502;27;20054;-83
2022/08/14 15:34:56;;;;;;;4.13;1.50;;;36.30;99.90;;;;;;5119131;28;20047;-82
2022/08/14 15:37:44;;;;;;;1.92;1.60;;;35.30;99.90;;;;;;5118387;28;20493;-83